Time;durP1;ratioP1;P1;durP2;ratioP2;P2;SDS_P1;SDS_P2;PMS_P1;PMS_P2;Temp;Humidity;BMP_temperature;BMP_pressure;BME280_temperature;BME280_humidity;BME280_pressure;Samples;Min_cycle;Max_cycle;Signal;HPM_P1;HPM_P2
2022/02/05 00:00:32;;;;;;;4.40;0.80;;;;;;;5.94;76.65;99348.06;105945;1274;25280;-60
2022/02/05 00:03:17;;;;;;;8.00;1.10;;;;;;;5.96;76.62;99350.02;105826;1274;25259;-60
2022/02/05 00:05:51;;;;;;;5.80;0.90;;;;;;;5.97;76.64;99345.55;105832;1274;23321;-61
2022/02/05 00:08:36;;;;;;;5.40;0.90;;;;;;;5.97;76.63;99339.44;105832;1274;26140;-61
2022/02/05 00:14:19;;;;;;;4.10;1.00;;;;;;;5.99;76.71;99340.30;105773;1274;25230;-61
2022/02/05 00:42:11;;;;;;;5.50;0.80;;;;;;;5.98;76.58;99331.73;105234;1284;25403;-62
2022/02/05 00:44:39;;;;;;;4.20;1.00;;;;;;;5.97;76.63;99333.27;105334;1284;22664;-60
2022/02/05 00:47:08;;;;;;;4.00;0.70;;;;;;;5.93;76.53;99335.91;105191;1284;25524;-60
2022/02/05 00:49:37;;;;;;;4.10;0.90;;;;;;;5.90;76.42;99342.79;105215;1284;22716;-62
2022/02/05 00:52:11;;;;;;;5.70;0.90;;;;;;;5.89;76.49;99341.59;105369;1284;26156;-60
2022/02/05 00:54:45;;;;;;;4.30;0.70;;;;;;;5.88;76.61;99344.33;105224;1284;25389;-60
2022/02/05 00:57:32;;;;;;;4.90;0.90;;;;;;;5.88;76.50;99350.73;105252;1284;22884;-61
2022/02/05 01:00:01;;;;;;;4.60;0.90;;;;;;;5.88;76.65;99343.07;105556;1279;22579;-61
2022/02/05 01:02:30;;;;;;;4.80;0.90;;;;;;;5.87;76.59;99340.95;105776;1274;22544;-60
2022/02/05 01:04:58;;;;;;;3.00;0.60;;;;;;;5.86;76.50;99347.11;105879;1271;22545;-60
2022/02/05 01:07:28;;;;;;;3.90;0.90;;;;;;;5.85;76.49;99354.13;106274;1270;22706;-60
2022/02/05 01:09:56;;;;;;;6.10;0.80;;;;;;;5.84;76.63;99360.96;106462;1270;22539;-60
2022/02/05 01:12:27;;;;;;;2.70;0.60;;;;;;;5.83;76.66;99362.48;106369;1270;22592;-59
2022/02/05 01:14:59;;;;;;;4.30;0.80;;;;;;;5.82;76.76;99362.92;106513;1271;22551;-61
2022/02/05 01:17:32;;;;;;;5.00;0.80;;;;;;;5.82;76.73;99365.93;106591;1270;24707;-61
2022/02/05 01:20:34;;;;;;;2.40;0.60;;;;;;;5.82;76.80;99360.94;106381;1270;24713;-60
2022/02/05 01:23:06;;;;;;;6.20;0.90;;;;;;;5.82;76.76;99357.97;106406;1269;24245;-60
2022/02/05 01:25:40;;;;;;;3.70;0.80;;;;;;;5.81;76.82;99360.28;106642;1270;22596;-60
2022/02/05 01:28:13;;;;;;;3.10;0.60;;;;;;;5.80;76.87;99373.30;106355;1270;25499;-59
2022/02/05 01:30:45;;;;;;;2.70;0.60;;;;;;;5.80;76.76;99387.30;106555;1271;22623;-60
2022/02/05 01:33:34;;;;;;;2.10;0.50;;;;;;;5.82;76.71;99397.14;106351;1271;26558;-60
2022/02/05 01:36:20;;;;;;;3.70;0.40;;;;;;;5.87;76.28;99412.97;106277;1271;22714;-60
2022/02/05 01:50:22;;;;;;;1.20;0.10;;;;;;;6.09;75.03;99469.38;105386;1281;22612;-60
2022/02/05 01:53:23;;;;;;;2.10;0.10;;;;;;;6.10;75.01;99469.26;105404;1281;25980;-60
2022/02/05 01:56:12;;;;;;;0.70;0.10;;;;;;;6.08;74.96;99470.00;105361;1281;25519;-60
2022/02/05 01:58:55;;;;;;;0.30;0.10;;;;;;;6.05;74.70;99481.47;105437;1281;22579;-61
2022/02/05 02:07:07;;;;;;;1.90;0.10;;;;;;;5.91;72.43;99506.99;105405;1281;22601;-61
2022/02/05 02:10:17;;;;;;;0.90;0.30;;;;;;;5.84;72.26;99512.28;105379;1281;25678;-61
2022/02/05 02:12:57;;;;;;;0.40;0.10;;;;;;;5.77;72.37;99516.13;105334;1281;22598;-60
2022/02/05 02:15:30;;;;;;;;;;;;;;;5.71;72.53;99539.86;105470;1281;25373;-61
2022/02/05 02:18:20;;;;;;;1.70;0.10;;;;;;;5.66;71.94;99548.72;105548;1276;22554;-62
2022/02/05 02:21:03;;;;;;;1.60;0.20;;;;;;;5.60;71.94;99560.23;105794;1274;22534;-59
2022/02/05 02:23:45;;;;;;;0.70;0.10;;;;;;;5.54;71.80;99572.84;105783;1275;22709;-59
2022/02/05 02:26:21;;;;;;;1.10;0.10;;;;;;;5.48;71.63;99579.09;105769;1275;23151;-60
2022/02/05 02:28:56;;;;;;;0.30;0.10;;;;;;;5.42;71.52;99565.51;106002;1270;25393;-61
2022/02/05 02:31:29;;;;;;;0.90;0.00;;;;;;;5.36;71.70;99562.13;106338;1270;22544;-58
2022/02/05 02:34:00;;;;;;;1.40;0.20;;;;;;;5.31;71.19;99578.81;106379;1271;22531;-60
2022/02/05 02:36:34;;;;;;;0.90;0.10;;;;;;;5.24;71.47;99586.05;106376;1271;24326;-60
2022/02/05 02:39:09;;;;;;;1.30;0.10;;;;;;;5.18;71.89;99587.74;106283;1270;22538;-59
2022/02/05 02:41:44;;;;;;;0.40;0.10;;;;;;;5.12;71.69;99600.29;106318;1270;25823;-59
2022/02/05 02:44:13;;;;;;;0.50;0.10;;;;;;;5.06;71.70;99600.23;106314;1271;25464;-59
2022/02/05 02:46:41;;;;;;;0.50;0.10;;;;;;;5.01;71.71;99606.95;106411;1270;24134;-59
2022/02/05 02:49:14;;;;;;;0.50;0.00;;;;;;;4.94;71.81;99605.60;106314;1271;22668;-62
2022/02/05 02:57:22;;;;;;;2.40;0.20;;;;;;;4.79;71.95;99646.30;106296;1270;26650;-59
2022/02/05 02:59:53;;;;;;;1.00;0.20;;;;;;;4.75;72.07;99655.05;106334;1271;26596;-59
2022/02/05 03:02:24;;;;;;;0.70;0.10;;;;;;;4.73;71.99;99670.13;106425;1270;22669;-61
2022/02/05 03:04:54;;;;;;;1.30;0.10;;;;;;;4.71;71.74;99683.48;106496;1268;25239;-59
2022/02/05 03:07:23;;;;;;;2.50;0.10;;;;;;;4.70;71.39;99691.67;106607;1271;25293;-60
2022/02/05 03:09:54;;;;;;;2.30;0.20;;;;;;;4.68;71.17;99699.46;106932;1271;22832;-60
2022/02/05 03:12:24;;;;;;;1.30;0.20;;;;;;;4.66;71.48;99713.70;106359;1271;23033;-62
2022/02/05 03:14:53;;;;;;;0.70;0.10;;;;;;;4.65;71.15;99729.53;106446;1271;22932;-60
2022/02/05 03:17:23;;;;;;;1.10;0.10;;;;;;;4.62;69.86;99726.77;106319;1271;24180;-59
2022/02/05 03:19:52;;;;;;;2.90;0.20;;;;;;;4.60;69.39;99737.05;106354;1271;24259;-59
2022/02/05 03:22:23;;;;;;;2.10;0.20;;;;;;;4.56;69.57;99743.22;106531;1270;22573;-59
2022/02/05 03:24:52;;;;;;;2.00;0.10;;;;;;;4.51;69.65;99740.86;106371;1271;22547;-60
2022/02/05 03:27:21;;;;;;;3.10;0.10;;;;;;;4.49;70.42;99743.70;106562;1269;22474;-59
2022/02/05 03:29:50;;;;;;;1.00;0.10;;;;;;;4.47;71.25;99750.01;106538;1271;22633;-59
2022/02/05 03:32:22;;;;;;;1.80;0.20;;;;;;;4.43;71.59;99760.64;106551;1271;22786;-59
2022/02/05 03:34:50;;;;;;;1.10;0.10;;;;;;;4.39;71.84;99763.40;106373;1271;24212;-59
2022/02/05 03:37:20;;;;;;;2.30;0.20;;;;;;;4.36;71.96;99775.34;106431;1271;24408;-59
2022/02/05 03:39:50;;;;;;;0.50;0.10;;;;;;;4.32;72.09;99776.36;106548;1270;25371;-60
2022/02/05 03:42:19;;;;;;;1.00;0.10;;;;;;;4.28;72.22;99776.81;106413;1271;26516;-59
2022/02/05 03:44:48;;;;;;;4.00;0.10;;;;;;;4.23;72.16;99788.83;106403;1271;25641;-60
2022/02/05 03:47:16;;;;;;;0.70;0.20;;;;;;;4.18;72.30;99795.66;106293;1271;22542;-59
2022/02/05 03:49:46;;;;;;;1.10;0.20;;;;;;;4.14;72.35;99797.21;106229;1271;22544;-60
2022/02/05 03:52:14;;;;;;;0.60;0.10;;;;;;;4.08;72.18;99805.98;106290;1271;25379;-60
2022/02/05 03:54:44;;;;;;;0.40;0.10;;;;;;;4.05;72.23;99807.66;106322;1271;24746;-59
2022/02/05 03:57:13;;;;;;;1.00;0.10;;;;;;;4.01;72.26;99807.58;106396;1270;22552;-58
2022/02/05 03:59:42;;;;;;;0.50;0.10;;;;;;;3.97;72.22;99807.61;106517;1271;22801;-59
2022/02/05 04:02:11;;;;;;;1.10;0.10;;;;;;;3.93;72.28;99811.70;106369;1271;23264;-60
2022/02/05 04:04:39;;;;;;;0.80;0.10;;;;;;;3.88;72.26;99822.38;106319;1271;25627;-58
2022/02/05 04:07:08;;;;;;;2.20;0.10;;;;;;;3.83;72.38;99831.27;106339;1271;25466;-59
2022/02/05 04:09:41;;;;;;;1.50;0.10;;;;;;;3.79;72.54;99835.44;106320;1271;22532;-59
2022/02/05 04:17:44;;;;;;;0.90;0.10;;;;;;;3.72;73.32;99866.36;106365;1271;22531;-58
2022/02/05 04:20:13;;;;;;;1.60;0.20;;;;;;;3.70;73.51;99868.55;106330;1271;24199;-60
2022/02/05 04:22:41;;;;;;;0.40;0.00;;;;;;;3.67;73.53;99872.02;106457;1270;25935;-60
2022/02/05 04:25:12;;;;;;;4.10;0.10;;;;;;;3.64;73.40;99876.06;106351;1270;22714;-58
2022/02/05 04:27:39;;;;;;;;;;;;;;;3.62;73.37;99882.11;106549;1271;22530;-59
2022/02/05 04:30:10;;;;;;;2.00;0.20;;;;;;;3.60;73.45;99876.26;106372;1271;25310;-60
2022/02/05 04:32:38;;;;;;;4.50;0.20;;;;;;;3.57;73.58;99887.86;106381;1271;24012;-60
2022/02/05 04:35:08;;;;;;;2.60;0.20;;;;;;;3.56;73.58;99895.55;106352;1271;22964;-58
2022/02/05 04:37:37;;;;;;;0.80;0.20;;;;;;;3.53;73.66;99901.73;106593;1271;22537;-59
2022/02/05 04:40:19;;;;;;;1.30;0.20;;;;;;;3.51;73.65;99908.24;106368;1271;22548;-64
2022/02/05 04:42:56;;;;;;;0.90;0.10;;;;;;;3.51;73.71;99911.87;106380;1271;25389;-59
2022/02/05 04:51:28;;;;;;;3.00;0.30;;;;;;;3.49;73.76;99926.43;105672;1279;22649;-59
2022/02/05 04:54:11;;;;;;;0.80;0.20;;;;;;;3.48;73.81;99930.70;105751;1279;24274;-60
2022/02/05 04:56:49;;;;;;;4.50;0.20;;;;;;;3.47;74.06;99935.23;105735;1279;22502;-59
2022/02/05 04:59:48;;;;;;;2.50;0.40;;;;;;;3.45;74.25;99934.58;105654;1279;22548;-59
2022/02/05 05:02:33;;;;;;;5.60;0.30;;;;;;;3.44;74.29;99936.27;105620;1279;22547;-60
2022/02/05 05:05:15;;;;;;;5.50;0.50;;;;;;;3.43;74.38;99939.70;105679;1277;25764;-60
2022/02/05 05:07:58;;;;;;;3.50;0.40;;;;;;;3.42;74.50;99947.27;105605;1279;22862;-60
2022/02/05 05:10:33;;;;;;;2.90;0.40;;;;;;;3.41;74.58;99946.77;105559;1280;24204;-59
2022/02/05 05:13:06;;;;;;;2.10;0.60;;;;;;;3.40;74.68;99944.77;105733;1280;24272;-59
2022/02/05 05:19:12;;;;;;;2.20;0.30;;;;;;;3.38;74.68;99950.09;105655;1279;22555;-60
2022/02/05 05:21:12;;;;;;;4.30;0.40;;;;;;;3.35;74.82;99952.45;105175;1284;25578;-58
2022/02/05 05:23:41;;;;;;;2.40;0.80;;;;;;;3.33;74.81;99962.05;105345;1284;24082;-59
2022/02/05 05:26:09;;;;;;;3.60;0.40;;;;;;;3.32;74.87;99959.16;105483;1279;25381;-60
2022/02/05 05:28:39;;;;;;;2.20;0.40;;;;;;;3.30;74.88;99955.34;105891;1275;25328;-60
2022/02/05 05:31:07;;;;;;;3.20;0.50;;;;;;;3.29;74.82;99952.53;105780;1275;22691;-60
2022/02/05 05:33:36;;;;;;;5.50;0.40;;;;;;;3.28;74.91;99954.30;105794;1275;22759;-60
2022/02/05 05:36:06;;;;;;;3.10;0.40;;;;;;;3.27;74.80;99954.01;105883;1276;23108;-60
2022/02/05 05:38:34;;;;;;;2.50;0.40;;;;;;;3.27;74.85;99957.02;105879;1274;23151;-59
2022/02/05 05:41:03;;;;;;;3.00;0.40;;;;;;;3.26;74.80;99957.50;105870;1276;25378;-59
2022/02/05 05:43:44;;;;;;;6.70;0.50;;;;;;;3.25;74.73;99962.03;105832;1276;22592;-60
2022/02/05 05:46:18;;;;;;;3.90;0.40;;;;;;;3.24;74.56;99970.24;106219;1274;22482;-60
2022/02/05 05:49:09;;;;;;;2.20;0.20;;;;;;;3.24;74.58;99969.48;106499;1275;26579;-60
2022/02/05 05:51:38;;;;;;;2.90;0.30;;;;;;;3.22;74.57;99973.13;105829;1274;22535;-60
2022/02/05 05:54:07;;;;;;;2.10;0.40;;;;;;;3.20;74.35;99977.69;105804;1276;25580;-61
2022/02/05 05:56:36;;;;;;;3.80;0.50;;;;;;;3.20;74.30;99987.95;106009;1276;22532;-61
2022/02/05 05:59:06;;;;;;;5.50;0.40;;;;;;;3.19;74.40;99989.70;106131;1271;22532;-61
2022/02/05 06:01:36;;;;;;;3.90;0.30;;;;;;;3.21;74.28;99993.67;106453;1271;24643;-60
2022/02/05 06:04:05;;;;;;;5.50;0.50;;;;;;;3.23;74.24;99995.27;106337;1271;25409;-60
2022/02/05 06:06:34;;;;;;;3.80;0.50;;;;;;;3.25;74.22;99996.46;106550;1271;25104;-57
2022/02/05 06:09:02;;;;;;;6.00;0.40;;;;;;;3.27;74.30;100002.55;106449;1271;22557;-58
2022/02/05 06:11:30;;;;;;;3.80;0.70;;;;;;;3.29;74.14;100007.41;106382;1271;25248;-58
2022/02/05 06:13:59;;;;;;;6.70;0.60;;;;;;;3.31;74.07;100010.72;106329;1271;23151;-58
2022/02/05 06:16:31;;;;;;;8.10;0.60;;;;;;;3.34;73.97;100017.75;106236;1271;22520;-59
2022/02/05 06:18:59;;;;;;;7.90;0.50;;;;;;;3.37;73.95;100020.66;106191;1271;22575;-58
2022/02/05 06:21:28;;;;;;;8.50;0.60;;;;;;;3.39;73.77;100021.09;106317;1271;22483;-58
2022/02/05 06:23:57;;;;;;;3.10;0.60;;;;;;;3.41;73.74;100023.55;106353;1271;24268;-59
2022/02/05 06:26:26;;;;;;;6.30;0.60;;;;;;;3.44;73.53;100035.92;106532;1271;22555;-58
2022/02/05 06:28:54;;;;;;;6.90;0.50;;;;;;;3.47;73.47;100039.70;106295;1271;25913;-58
2022/02/05 06:31:23;;;;;;;6.50;0.60;;;;;;;3.50;73.39;100045.00;106300;1271;22690;-58
2022/02/05 06:33:51;;;;;;;3.30;0.20;;;;;;;3.53;73.38;100051.55;106432;1271;22693;-60
2022/02/05 06:36:20;;;;;;;8.20;0.70;;;;;;;3.54;73.42;100053.65;106464;1271;24292;-58
2022/02/05 06:38:48;;;;;;;6.50;0.80;;;;;;;3.55;73.35;100058.95;106497;1271;22538;-58
2022/02/05 06:41:17;;;;;;;4.50;0.60;;;;;;;3.56;73.44;100051.77;106409;1271;26528;-59
2022/02/05 06:43:46;;;;;;;6.20;0.30;;;;;;;3.57;73.35;100050.32;106440;1271;24281;-58
2022/02/05 06:46:14;;;;;;;4.80;0.50;;;;;;;3.57;73.36;100051.89;106530;1270;22528;-58
2022/02/05 06:48:42;;;;;;;4.60;0.50;;;;;;;3.57;73.26;100049.45;106504;1271;24377;-58
2022/02/05 06:51:11;;;;;;;2.20;0.20;;;;;;;3.57;73.24;100055.76;106367;1271;22734;-58
2022/02/05 06:53:39;;;;;;;7.90;0.50;;;;;;;3.58;73.22;100060.68;106547;1271;22582;-58
2022/02/05 06:56:08;;;;;;;6.60;0.40;;;;;;;3.60;73.12;100062.15;106410;1271;25089;-59
2022/02/05 06:58:36;;;;;;;9.50;0.40;;;;;;;3.61;73.28;100070.63;106438;1271;22540;-59
2022/02/05 07:01:04;;;;;;;6.00;0.50;;;;;;;3.62;73.21;100067.21;106376;1271;25337;-58
2022/02/05 07:03:34;;;;;;;5.20;0.50;;;;;;;3.63;73.21;100074.12;106415;1271;24444;-60
2022/02/05 07:06:05;;;;;;;7.00;0.50;;;;;;;3.64;72.99;100075.19;106539;1271;24145;-61
2022/02/05 07:08:34;;;;;;;5.20;0.50;;;;;;;3.66;72.75;100078.06;106452;1271;22557;-60
2022/02/05 07:11:02;;;;;;;4.50;0.30;;;;;;;3.67;72.67;100079.99;106404;1271;22834;-61
2022/02/05 07:13:31;;;;;;;6.10;1.00;;;;;;;3.70;72.61;100082.61;106454;1270;24696;-60
2022/02/05 07:16:06;;;;;;;8.00;0.80;;;;;;;3.71;72.63;100090.55;106527;1271;22501;-57
2022/02/05 07:18:43;;;;;;;12.30;1.30;;;;;;;3.72;72.56;100087.20;106457;1271;22531;-56
2022/02/05 07:21:15;;;;;;;4.90;0.70;;;;;;;3.74;72.61;100088.17;106358;1271;22528;-57
2022/02/05 07:24:09;;;;;;;4.40;0.40;;;;;;;3.74;72.54;100092.11;106558;1271;22831;-57
2022/02/05 07:29:24;;;;;;;5.60;0.30;;;;;;;3.79;72.22;100100.27;106356;1271;26252;-57
2022/02/05 07:31:55;;;;;;;11.20;0.60;;;;;;;3.80;72.12;100101.97;106387;1271;25382;-57
2022/02/05 07:34:25;;;;;;;3.90;0.80;;;;;;;3.82;72.14;100100.42;106528;1269;22569;-58
2022/02/05 07:36:58;;;;;;;;;;;;;;;3.83;72.03;100102.59;106450;1271;25475;-57
2022/02/05 07:39:28;;;;;;;5.20;0.50;;;;;;;3.84;71.91;100103.19;106393;1271;22573;-57
2022/02/05 07:42:00;;;;;;;7.20;0.50;;;;;;;3.86;71.93;100103.23;106415;1271;25361;-57
2022/02/05 07:44:29;;;;;;;4.30;0.50;;;;;;;3.88;71.83;100102.94;106439;1271;26545;-56
2022/02/05 07:47:00;;;;;;;5.90;0.60;;;;;;;3.90;71.62;100108.80;106489;1271;24224;-60
2022/02/05 07:49:35;;;;;;;5.00;0.50;;;;;;;3.92;71.64;100108.48;106475;1271;25378;-57
2022/02/05 07:52:06;;;;;;;6.90;0.80;;;;;;;3.95;71.69;100108.51;106413;1271;22544;-58
2022/02/05 07:54:35;;;;;;;8.00;0.90;;;;;;;3.98;71.55;100115.67;106386;1271;22543;-57
2022/02/05 07:57:05;;;;;;;3.10;0.50;;;;;;;4.01;71.29;100112.42;106434;1271;24080;-62
2022/02/05 07:59:34;;;;;;;9.90;1.10;;;;;;;4.03;71.10;100117.10;106359;1271;22548;-60
2022/02/05 08:02:04;;;;;;;8.30;0.50;;;;;;;4.04;71.11;100120.88;106407;1271;22643;-60
2022/02/05 08:04:33;;;;;;;7.80;0.60;;;;;;;4.03;71.09;100120.35;106290;1271;24661;-60
2022/02/05 08:07:03;;;;;;;7.40;0.60;;;;;;;4.04;71.05;100119.54;106311;1271;24216;-57
2022/02/05 08:09:45;;;;;;;3.60;0.60;;;;;;;4.07;71.16;100118.73;106315;1271;24094;-59
2022/02/05 08:12:17;;;;;;;6.90;0.70;;;;;;;4.12;70.93;100121.67;106355;1271;22546;-56
2022/02/05 08:14:48;;;;;;;5.40;0.80;;;;;;;4.15;70.82;100110.77;106471;1271;24320;-58
2022/02/05 08:17:21;;;;;;;6.40;0.80;;;;;;;4.18;71.09;100115.98;106318;1271;22573;-57
2022/02/05 08:19:49;;;;;;;4.10;0.60;;;;;;;4.20;70.95;100119.94;106334;1271;25225;-58
2022/02/05 08:22:19;;;;;;;6.30;0.70;;;;;;;4.25;71.03;100124.23;106312;1271;22532;-61
2022/02/05 08:24:48;;;;;;;8.30;0.70;;;;;;;4.28;70.85;100136.13;106238;1270;24990;-60
2022/02/05 08:27:17;;;;;;;5.10;0.60;;;;;;;4.32;70.75;100135.70;106193;1271;24357;-58
2022/02/05 08:29:54;;;;;;;13.40;1.20;;;;;;;4.35;70.52;100142.48;106366;1271;23864;-58
2022/02/05 08:32:25;;;;;;;4.70;0.80;;;;;;;4.35;70.36;100145.39;106257;1272;25317;-60
2022/02/05 08:34:55;;;;;;;7.70;0.70;;;;;;;4.35;70.78;100146.50;106474;1270;25450;-59
2022/02/05 08:37:24;;;;;;;8.30;1.00;;;;;;;4.34;70.82;100152.39;106439;1271;25337;-57
2022/02/05 08:39:52;;;;;;;14.00;0.80;;;;;;;4.30;70.51;100156.61;106267;1271;22838;-59
2022/02/05 08:42:21;;;;;;;6.80;0.80;;;;;;;4.29;71.03;100159.54;106307;1271;24287;-57
2022/02/05 08:44:50;;;;;;;6.80;0.80;;;;;;;4.30;71.13;100158.89;106455;1271;22698;-58
2022/02/05 08:47:20;;;;;;;10.40;1.30;;;;;;;4.32;70.83;100162.69;107878;1268;22596;-58
2022/02/05 08:49:49;;;;;;;5.00;0.80;;;;;;;4.34;70.81;100163.89;106222;1268;22621;-59
2022/02/05 08:52:18;;;;;;;7.80;1.00;;;;;;;4.36;70.42;100160.99;106310;1271;23870;-58
2022/02/05 08:54:48;;;;;;;3.30;0.80;;;;;;;4.38;70.53;100163.39;106331;1271;23941;-62
2022/02/05 08:57:17;;;;;;;7.10;1.10;;;;;;;4.41;70.42;100164.65;106314;1272;22557;-60
2022/02/05 08:59:52;;;;;;;4.50;0.90;;;;;;;4.43;70.52;100166.33;106344;1271;24150;-59
2022/02/05 09:02:29;;;;;;;5.60;0.80;;;;;;;4.46;70.08;100166.00;106193;1271;24151;-59
2022/02/05 09:05:06;;;;;;;5.40;0.90;;;;;;;4.50;70.16;100167.31;106194;1271;24301;-60
2022/02/05 09:07:35;;;;;;;10.60;1.90;;;;;;;4.51;69.67;100166.41;106142;1271;22531;-61
2022/02/05 09:10:11;;;;;;;7.60;1.10;;;;;;;4.51;70.17;100164.26;106307;1271;26240;-60
2022/02/05 09:13:08;;;;;;;13.90;1.50;;;;;;;4.51;69.93;100163.88;106371;1271;22553;-60
2022/02/05 09:15:37;;;;;;;9.00;1.00;;;;;;;4.52;70.37;100159.27;106120;1271;22551;-60
2022/02/05 09:18:06;;;;;;;12.10;1.10;;;;;;;4.55;70.20;100167.01;106271;1271;22682;-60
2022/02/05 09:20:34;;;;;;;6.80;1.20;;;;;;;4.58;69.83;100162.25;106201;1271;22534;-63
2022/02/05 09:23:03;;;;;;;7.70;0.90;;;;;;;4.60;69.47;100172.46;106255;1271;25368;-60
2022/02/05 09:25:35;;;;;;;9.60;1.20;;;;;;;4.62;69.35;100170.83;106090;1271;22608;-60
2022/02/05 09:28:05;;;;;;;7.00;1.20;;;;;;;4.64;69.80;100171.38;106233;1271;25308;-60
2022/02/05 09:30:45;;;;;;;6.90;0.90;;;;;;;4.67;69.28;100181.00;106202;1271;22643;-59
2022/02/05 09:33:13;;;;;;;;;;;;;;;4.69;68.96;100175.84;106046;1268;251461;-60
2022/02/05 09:35:41;;;;;;;10.00;0.90;;;;;;;4.68;68.90;100180.20;106382;1268;22483;-66
2022/02/05 09:38:10;;;;;;;7.50;0.90;;;;;;;4.66;69.23;100171.80;106351;1271;22534;-60
2022/02/05 09:40:39;;;;;;;7.00;0.80;;;;;;;4.65;69.24;100177.92;106055;1271;22622;-61
2022/02/05 09:43:08;;;;;;;7.40;0.90;;;;;;;4.64;69.03;100183.32;106082;1271;24261;-60
2022/02/05 09:45:37;;;;;;;6.90;1.20;;;;;;;4.64;68.83;100188.84;106178;1271;25385;-62
2022/02/05 09:48:07;;;;;;;9.00;1.00;;;;;;;4.66;68.79;100188.88;106318;1271;22569;-63
2022/02/05 09:50:36;;;;;;;11.90;0.90;;;;;;;4.69;68.75;100186.34;106285;1271;22555;-62
2022/02/05 09:53:14;;;;;;;8.70;0.90;;;;;;;4.72;68.45;100183.06;106479;1271;25001;-59
2022/02/05 09:55:43;;;;;;;12.00;1.50;;;;;;;4.76;68.69;100190.37;106076;1271;22570;-59
2022/02/05 09:58:12;;;;;;;13.40;0.80;;;;;;;4.79;68.26;100196.08;106183;1271;24099;-59
2022/02/05 10:00:57;;;;;;;7.50;0.80;;;;;;;4.81;68.38;100187.63;106158;1271;25943;-60
2022/02/05 10:03:28;;;;;;;7.90;1.30;;;;;;;4.84;68.46;100189.98;106092;1271;25398;-60
2022/02/05 10:06:08;;;;;;;;;;;;;;;4.87;68.21;100191.88;106064;1271;22554;-60
2022/02/05 10:08:38;;;;;;;5.70;0.60;;;;;;;4.89;68.38;100186.98;106128;1271;22551;-61
2022/02/05 10:11:07;;;;;;;5.90;0.70;;;;;;;4.91;67.80;100195.29;105908;1271;25328;-61
2022/02/05 10:13:36;;;;;;;5.10;1.00;;;;;;;4.93;67.84;100195.95;106249;1271;22557;-61
2022/02/05 10:16:07;;;;;;;7.90;0.70;;;;;;;4.99;68.09;100192.15;106367;1269;22632;-61
2022/02/05 10:18:38;;;;;;;7.20;1.20;;;;;;;5.04;67.78;100199.17;106520;1271;22525;-61
2022/02/05 10:21:22;;;;;;;8.60;1.00;;;;;;;5.05;67.02;100195.61;106388;1269;26619;-61
2022/02/05 10:23:57;;;;;;;7.50;1.00;;;;;;;5.04;66.51;100199.10;106432;1271;22546;-61
2022/02/05 10:26:33;;;;;;;4.60;0.80;;;;;;;5.02;66.35;100190.92;106552;1271;22997;-63
2022/02/05 10:29:05;;;;;;;10.00;0.90;;;;;;;5.01;66.57;100195.56;106203;1271;22643;-60
2022/02/05 10:31:54;;;;;;;8.60;0.70;;;;;;;5.02;67.03;100192.77;106164;1271;22574;-62
2022/02/05 10:34:24;;;;;;;8.20;1.00;;;;;;;5.02;66.93;100197.59;106169;1271;25654;-62
2022/02/05 10:37:09;;;;;;;6.00;0.60;;;;;;;5.00;66.21;100198.52;106442;1271;23072;-61
2022/02/05 10:45:12;;;;;;;5.80;0.80;;;;;;;4.94;66.75;100193.63;106061;1274;22699;-61
2022/02/05 10:47:53;;;;;;;6.00;0.80;;;;;;;4.95;66.27;100189.42;106064;1274;24477;-60
2022/02/05 10:50:23;;;;;;;6.10;0.80;;;;;;;4.97;66.53;100193.70;106114;1273;26738;-60
2022/02/05 10:52:58;;;;;;;5.50;0.80;;;;;;;4.99;66.63;100188.11;105998;1274;22926;-59
2022/02/05 10:55:52;;;;;;;10.70;1.20;;;;;;;4.99;66.22;100188.24;105801;1274;24598;-68
2022/02/05 10:58:36;;;;;;;8.30;1.00;;;;;;;5.02;66.38;100189.68;105785;1273;24244;-68
2022/02/05 11:07:06;;;;;;;10.30;0.70;;;;;;;5.01;66.44;100202.38;105975;1274;24852;-59
2022/02/05 11:09:35;;;;;;;2.00;0.50;;;;;;;4.97;67.15;100211.00;106750;1273;22943;-62
2022/02/05 11:15:26;;;;;;;10.60;1.40;;;;;;;4.90;66.89;100215.40;105791;1274;25936;-61
2022/02/05 11:20:43;;;;;;;11.20;1.00;;;;;;;4.86;67.16;100218.52;106355;1270;22689;-59
2022/02/05 11:23:13;;;;;;;8.40;0.60;;;;;;;4.84;66.76;100222.31;106510;1271;24274;-60
2022/02/05 11:25:42;;;;;;;8.40;1.10;;;;;;;4.80;66.95;100225.27;106386;1271;22635;-60
2022/02/05 11:28:12;;;;;;;4.50;0.70;;;;;;;4.74;67.18;100225.77;106493;1270;22532;-59
2022/02/05 11:30:45;;;;;;;6.40;0.90;;;;;;;4.65;67.55;100230.84;106610;1270;22549;-59
2022/02/05 11:33:27;;;;;;;7.00;0.90;;;;;;;4.62;68.12;100230.23;106483;1271;24298;-60
2022/02/05 11:39:01;;;;;;;6.70;1.10;;;;;;;4.62;68.60;100240.27;106328;1270;22711;-60
2022/02/05 11:41:32;;;;;;;6.90;0.80;;;;;;;4.65;68.77;100232.80;106593;1270;22552;-61
2022/02/05 11:44:19;;;;;;;;;;;;;;;4.71;68.94;100229.23;106395;1271;25375;-61
2022/02/05 11:47:25;;;;;;;5.50;0.70;;;;;;;4.75;68.98;100230.64;106512;1270;22783;-60
2022/02/05 11:50:22;;;;;;;6.40;0.80;;;;;;;4.75;68.75;100232.21;106515;1271;24405;-59
2022/02/05 11:53:11;;;;;;;3.90;0.70;;;;;;;4.77;68.23;100234.92;106367;1268;22562;-61
2022/02/05 11:55:43;;;;;;;6.10;0.60;;;;;;;4.80;67.71;100237.27;106282;1271;22551;-59
2022/02/05 11:58:15;;;;;;;4.60;0.60;;;;;;;4.82;67.50;100238.02;108977;1269;22765;-59
2022/02/05 12:00:56;;;;;;;6.80;0.80;;;;;;;4.86;67.99;100236.63;106461;1271;22717;-59
2022/02/05 12:03:29;;;;;;;;;;;;;;;4.95;67.99;100239.67;106492;1271;25235;-61
2022/02/05 12:06:06;;;;;;;5.90;0.80;;;;;;;4.97;67.85;100242.68;106287;1268;22686;-61
2022/02/05 12:08:39;;;;;;;9.10;1.10;;;;;;;5.01;68.28;100244.30;106179;1271;25185;-61
2022/02/05 12:11:31;;;;;;;7.80;1.00;;;;;;;5.07;67.93;100239.89;106133;1271;24063;-60
2022/02/05 12:14:16;;;;;;;3.00;0.50;;;;;;;5.16;68.31;100244.27;106110;1271;22526;-63
2022/02/05 12:17:14;;;;;;;7.10;1.10;;;;;;;5.24;67.67;100242.02;105980;1271;23479;-60
2022/02/05 12:20:07;;;;;;;6.20;0.80;;;;;;;5.30;67.56;100234.08;105988;1271;25254;-61
2022/02/05 12:23:01;;;;;;;5.40;0.70;;;;;;;5.35;66.95;100233.45;106037;1271;25263;-63
2022/02/05 12:25:30;;;;;;;4.30;0.70;;;;;;;5.35;66.94;100235.59;105940;1271;22561;-61
2022/02/05 12:28:19;;;;;;;8.20;0.90;;;;;;;5.39;67.58;100241.15;106284;1271;24474;-61
2022/02/05 12:30:47;;;;;;;5.60;1.00;;;;;;;5.45;67.26;100242.39;106256;1271;24173;-61
2022/02/05 12:33:16;;;;;;;3.10;0.70;;;;;;;5.48;67.22;100245.13;106548;1271;22528;-60
2022/02/05 12:35:53;;;;;;;7.60;1.00;;;;;;;5.48;67.16;100247.04;106684;1270;24280;-60
2022/02/05 12:38:22;;;;;;;5.60;0.80;;;;;;;5.48;67.26;100247.84;106522;1270;22768;-61
2022/02/05 12:40:52;;;;;;;4.90;0.80;;;;;;;5.46;67.20;100244.96;106405;1270;22536;-60
2022/02/05 12:43:23;;;;;;;11.20;0.80;;;;;;;5.44;67.40;100250.50;106361;1270;22570;-60
2022/02/05 12:45:56;;;;;;;7.20;0.80;;;;;;;5.41;67.40;100247.67;106549;1268;22542;-57
2022/02/05 12:48:28;;;;;;;6.90;1.00;;;;;;;5.37;67.45;100245.32;106259;1268;24262;-58
2022/02/05 12:50:59;;;;;;;5.20;0.80;;;;;;;5.33;67.47;100254.16;106143;1268;24309;-66
2022/02/05 12:53:32;;;;;;;5.90;0.80;;;;;;;5.29;67.07;100252.63;106269;1270;24180;-61
2022/02/05 12:56:15;;;;;;;10.10;1.00;;;;;;;5.24;67.33;100249.38;106520;1271;22467;-62
2022/02/05 12:58:56;;;;;;;7.70;0.80;;;;;;;5.24;67.49;100253.80;106326;1270;22664;-62
2022/02/05 13:01:25;;;;;;;6.60;0.80;;;;;;;5.30;67.33;100252.27;106400;1268;25569;-63
2022/02/05 13:04:11;;;;;;;8.80;1.40;;;;;;;5.37;67.03;100254.02;106153;1271;22566;-62
2022/02/05 13:06:40;;;;;;;5.80;0.90;;;;;;;5.45;66.69;100249.81;106130;1270;22550;-59
2022/02/05 13:09:20;;;;;;;8.50;1.10;;;;;;;5.50;66.46;100254.57;106031;1270;22543;-61
2022/02/05 13:11:55;;;;;;;8.00;1.00;;;;;;;5.53;66.20;100260.73;106217;1270;22641;-60
2022/02/05 13:14:33;;;;;;;5.50;0.80;;;;;;;5.52;65.47;100263.06;106095;1271;24342;-60
2022/02/05 13:17:02;;;;;;;8.80;0.70;;;;;;;5.47;65.54;100263.86;105936;1271;24415;-60
2022/02/05 13:19:50;;;;;;;4.50;0.70;;;;;;;5.44;65.86;100275.02;106253;1271;22551;-59
2022/02/05 13:28:25;;;;;;;3.40;0.60;;;;;;;5.42;66.00;100282.27;105445;1274;22634;-59
2022/02/05 13:34:02;;;;;;;7.50;0.50;;;;;;;5.31;65.10;100298.92;105517;1274;25416;-58
2022/02/05 13:36:44;;;;;;;5.40;0.60;;;;;;;5.20;65.08;100300.77;105450;1274;24899;-59